CYWG/YWG METAR and TAF weather

Enter ICAO airport designator
Station Type Date Time Source
CYWG METAR 2022/05/23 14:00 UTC NOAA

CYWG 231400Z 23007KT 15SM BKN093 11/02 A3017 RMK ACC7 VIRGA ALQDS SLP224


Station Type Date Time Source
CYWG Decoded METAR 2022/05/23 14:00 UTC NOAA

Winnipeg Int. Airportman., Canada (CYWG) 49-54N 097-14W 239M
May 23, 2022 - 10:00 AM EDT / 2022.05.23 1400 UTC
Wind: from the SW (230 degrees) at 8 MPH (7 KT):0
Visibility: 15 mile(s):0
Sky conditions: mostly cloudy
Temperature: 51 F (11 C)
Dew Point: 35 F (2 C)
Relative Humidity: 53%
Pressure (altimeter): 30.17 in. Hg (1021 hPa)
ob: CYWG 231400Z 23007KT 15SM BKN093 11/02 A3017 RMK ACC7 VIRGA ALQDS SLP224
cycle: 14

Station Type Date Time Source
CYWG TAF 2022/05/23 12:42 UTC NOAA

TAF TAF CYWG 231140Z 2312/2412 19008KT P6SM SCT100
TEMPO 2312/2318 BKN100
BECMG 2315/2317 20015G25KT
FM231800 22018G28KT P6SM BKN100
TEMPO 2318/2403 P6SM -SHRA BKN070
BECMG 2401/2403 20010KT
FM240300 20010KT P6SM FEW100
RMK NXT FCST BY 231800Z

Example: see airport list